createdAt,value
2019-04-29T00:00:53.791Z,38.77
2019-04-29T00:03:24.239Z,38.47
2019-04-29T00:05:53.441Z,37.37
2019-04-29T00:08:22.932Z,38.87
2019-04-29T00:10:52.305Z,36.67
2019-04-29T00:13:21.490Z,38.57
2019-04-29T00:16:00.675Z,40.57
2019-04-29T00:18:38.014Z,35.47
2019-04-29T00:21:07.190Z,40.63
2019-04-29T00:23:36.526Z,41.03
2019-04-29T00:26:05.918Z,39.50
2019-04-29T00:28:35.233Z,42.77
2019-04-29T00:31:04.846Z,37.40
2019-04-29T00:33:34.173Z,45.17
2019-04-29T00:36:03.408Z,44.63
2019-04-29T00:38:50.666Z,44.47
2019-04-29T00:41:48.425Z,38.13
2019-04-29T00:44:17.923Z,40.70
2019-04-29T00:46:47.321Z,41.40
2019-04-29T00:49:16.479Z,41.83
2019-04-29T00:51:45.737Z,46.60
2019-04-29T00:54:21.970Z,41.43
2019-04-29T00:56:51.274Z,39.83
2019-04-29T00:59:20.477Z,40.60
2019-04-29T01:01:49.754Z,37.53
2019-04-29T01:04:18.845Z,37.67
2019-04-29T01:06:48.350Z,36.53
2019-04-29T01:09:20.123Z,36.03
2019-04-29T01:11:49.465Z,35.30
2019-04-29T01:14:18.770Z,34.17
2019-04-29T01:16:48.118Z,31.00
2019-04-29T01:19:17.278Z,30.37
2019-04-29T01:21:46.447Z,29.77
2019-04-29T01:24:15.580Z,33.93
2019-04-29T01:27:01.674Z,29.40
2019-04-29T01:29:31.720Z,31.90
2019-04-29T01:32:02.005Z,30.90
2019-04-29T01:34:36.652Z,36.50
2019-04-29T01:37:05.872Z,35.57
2019-04-29T01:39:41.704Z,33.03
2019-04-29T01:42:15.919Z,36.47
2019-04-29T01:44:45.351Z,36.50
2019-04-29T01:47:14.779Z,35.90
2019-04-29T01:49:44.021Z,36.13
2019-04-29T01:52:13.138Z,34.20
2019-04-29T01:54:42.412Z,35.70
2019-04-29T01:57:11.606Z,32.70
2019-04-29T01:59:40.833Z,32.77
2019-04-29T02:02:10.313Z,32.83
2019-04-29T02:04:39.476Z,32.40
2019-04-29T02:07:08.647Z,33.27
2019-04-29T02:10:06.249Z,32.10
2019-04-29T02:12:35.462Z,34.00
2019-04-29T02:15:05.010Z,35.70
2019-04-29T02:17:34.308Z,37.03
2019-04-29T02:20:03.611Z,29.20
2019-04-29T02:22:54.596Z,28.50
2019-04-29T02:25:31.291Z,27.07
2019-04-29T02:28:00.558Z,31.77
2019-04-29T02:30:33.750Z,31.07
2019-04-29T02:33:02.966Z,28.57
2019-04-29T02:35:32.288Z,27.03
2019-04-29T02:38:01.854Z,38.77
2019-04-29T02:40:37.958Z,36.57
2019-04-29T02:43:12.294Z,39.70
2019-04-29T02:45:41.487Z,76.97
2019-04-29T02:48:10.847Z,56.67
2019-04-29T02:50:40.044Z,30.43
2019-04-29T02:53:09.328Z,29.43
2019-04-29T02:55:43.125Z,26.03
2019-04-29T02:58:27.826Z,31.97
2019-04-29T03:01:16.426Z,36.50
2019-04-29T03:03:53.490Z,26.03
2019-04-29T03:06:23.733Z,27.00
2019-04-29T03:08:53.076Z,27.27
2019-04-29T03:11:22.487Z,29.30
2019-04-29T03:13:51.889Z,73.87
2019-04-29T03:16:21.243Z,35.33
2019-04-29T03:18:57.192Z,23.60
2019-04-29T03:21:35.951Z,23.03
2019-04-29T03:24:05.169Z,28.13
2019-04-29T03:26:34.323Z,22.43
2019-04-29T03:29:05.233Z,20.33
2019-04-29T03:31:39.193Z,20.90
2019-04-29T03:34:05.401Z,20.70
2019-04-29T03:36:34.533Z,22.67
2019-04-29T03:39:05.003Z,23.10
2019-04-29T03:41:34.680Z,21.33
2019-04-29T03:44:03.930Z,25.67
2019-04-29T03:46:33.302Z,20.63
2019-04-29T03:49:02.463Z,18.20
2019-04-29T03:51:31.650Z,22.20
2019-04-29T03:54:00.798Z,20.37
2019-04-29T03:56:30.085Z,20.63
2019-04-29T03:58:59.715Z,22.37
2019-04-29T04:01:34.541Z,22.53
2019-04-29T04:04:12.149Z,19.40
2019-04-29T04:06:52.011Z,20.30
2019-04-29T04:09:23.992Z,21.10
2019-04-29T04:11:53.512Z,18.60
2019-04-29T04:14:22.715Z,20.83
2019-04-29T04:17:08.078Z,18.90
2019-04-29T04:19:37.217Z,17.30
2019-04-29T04:22:06.372Z,18.27
2019-04-29T04:24:35.609Z,17.57
2019-04-29T04:27:05.031Z,18.40
2019-04-29T04:29:35.355Z,20.13
2019-04-29T04:32:04.595Z,20.87
2019-04-29T04:34:33.795Z,21.17
2019-04-29T04:37:02.995Z,19.30
2019-04-29T04:39:33.790Z,17.90
2019-04-29T04:42:03.111Z,21.47
2019-04-29T04:44:57.720Z,15.47
2019-04-29T04:47:26.961Z,18.07
2019-04-29T04:49:56.092Z,18.30
2019-04-29T04:52:25.275Z,11.80
2019-04-29T04:54:55.598Z,19.53
2019-04-29T04:57:24.796Z,16.53
2019-04-29T04:59:54.207Z,20.47
2019-04-29T05:02:25.218Z,16.60
2019-04-29T05:04:54.595Z,17.00
2019-04-29T05:07:24.941Z,16.00
2019-04-29T05:09:54.103Z,13.87
2019-04-29T05:12:23.403Z,21.40
2019-04-29T05:14:52.716Z,15.77
2019-04-29T05:17:22.109Z,14.47
2019-04-29T05:19:51.427Z,20.43
2019-04-29T05:22:20.713Z,19.73
2019-04-29T05:24:53.086Z,16.10
2019-04-29T05:27:22.218Z,19.10
2019-04-29T05:29:51.451Z,18.70
2019-04-29T05:32:20.777Z,15.93
2019-04-29T05:34:54.796Z,17.50
2019-04-29T05:37:33.539Z,14.20
2019-04-29T05:40:02.810Z,14.03
2019-04-29T05:42:31.949Z,13.17
2019-04-29T05:45:28.040Z,15.27
2019-04-29T05:48:04.426Z,16.87
2019-04-29T05:50:47.532Z,12.57
2019-04-29T05:53:23.497Z,11.03
2019-04-29T05:55:52.784Z,11.13
2019-04-29T05:58:22.034Z,11.10
2019-04-29T06:00:56.581Z,10.70
2019-04-29T06:03:25.858Z,14.73
2019-04-29T06:05:55.101Z,12.83
2019-04-29T06:08:24.227Z,16.60
2019-04-29T06:10:53.451Z,12.13
2019-04-29T06:13:22.648Z,12.60
2019-04-29T06:15:51.891Z,12.60
2019-04-29T06:18:22.145Z,9.97
2019-04-29T06:20:51.920Z,10.30
2019-04-29T06:23:23.092Z,11.60
2019-04-29T06:25:51.974Z,10.57
2019-04-29T06:28:25.940Z,13.33
2019-04-29T06:30:52.166Z,12.67
2019-04-29T06:33:24.189Z,13.53
2019-04-29T06:35:52.352Z,11.60
2019-04-29T06:38:21.671Z,12.30
2019-04-29T06:40:50.869Z,10.23
2019-04-29T06:43:20.099Z,8.00
2019-04-29T06:45:49.340Z,8.43
2019-04-29T06:48:18.681Z,13.60
2019-04-29T06:50:49.781Z,10.63
2019-04-29T06:53:21.536Z,11.47
2019-04-29T06:55:49.877Z,11.40
2019-04-29T06:58:19.019Z,9.60
2019-04-29T07:00:50.895Z,12.30
2019-04-29T07:03:20.936Z,10.73
2019-04-29T07:05:51.599Z,10.70
2019-04-29T07:08:21.046Z,10.90
2019-04-29T07:10:50.217Z,9.73
2019-04-29T07:13:22.689Z,15.80
2019-04-29T07:15:50.170Z,11.87
2019-04-29T07:18:19.328Z,9.70
2019-04-29T07:20:48.441Z,12.30
2019-04-29T07:23:17.608Z,11.43
2019-04-29T07:25:46.864Z,14.70
2019-04-29T07:28:18.315Z,11.73
2019-04-29T07:31:01.243Z,8.80
2019-04-29T07:33:22.659Z,10.70
2019-04-29T07:35:49.750Z,11.07
2019-04-29T07:38:19.023Z,11.50
2019-04-29T07:40:48.171Z,9.80
2019-04-29T07:43:18.155Z,13.57
2019-04-29T07:46:09.500Z,14.70
2019-04-29T07:48:42.050Z,10.77
2019-04-29T07:51:10.295Z,12.03
2019-04-29T07:53:45.282Z,14.03
2019-04-29T07:56:11.437Z,12.47
2019-04-29T07:58:40.675Z,14.10
2019-04-29T08:01:10.032Z,10.70
2019-04-29T08:03:39.227Z,12.30
2019-04-29T08:06:09.901Z,20.03
2019-04-29T08:08:39.599Z,9.60
2019-04-29T08:11:09.353Z,13.10
2019-04-29T08:13:39.338Z,11.83
2019-04-29T08:16:08.493Z,11.20
2019-04-29T08:18:37.693Z,11.53
2019-04-29T08:21:10.282Z,13.87
2019-04-29T08:23:41.224Z,10.63
2019-04-29T08:26:08.768Z,12.83
2019-04-29T08:28:37.966Z,12.47
2019-04-29T08:31:07.266Z,12.47
2019-04-29T08:33:36.437Z,14.97
2019-04-29T08:36:05.926Z,12.17
2019-04-29T08:38:35.240Z,9.47
2019-04-29T08:41:04.515Z,13.07
2019-04-29T08:43:57.826Z,11.63
2019-04-29T08:46:27.786Z,13.33
2019-04-29T08:49:01.020Z,13.50
2019-04-29T08:51:28.006Z,12.20
2019-04-29T08:53:57.315Z,12.07
2019-04-29T08:56:26.455Z,11.57
2019-04-29T08:58:55.765Z,13.33
2019-04-29T09:01:29.353Z,12.10
2019-04-29T09:03:57.955Z,14.27
2019-04-29T09:06:27.874Z,11.43
2019-04-29T09:08:59.731Z,13.53
2019-04-29T09:11:28.533Z,12.63
2019-04-29T09:13:57.868Z,17.23
2019-04-29T09:16:27.045Z,15.30
2019-04-29T09:18:56.391Z,15.93
2019-04-29T09:21:25.878Z,20.07
2019-04-29T09:23:55.072Z,14.13
2019-04-29T09:26:46.549Z,14.83
2019-04-29T09:29:30.136Z,13.17
2019-04-29T09:31:59.453Z,14.60
2019-04-29T09:34:28.641Z,13.10
2019-04-29T09:36:57.869Z,13.73
2019-04-29T09:39:27.234Z,15.90
2019-04-29T09:42:15.668Z,13.70
2019-04-29T09:45:02.992Z,17.67
2019-04-29T09:47:33.981Z,14.63
2019-04-29T09:50:03.331Z,14.60
2019-04-29T09:52:34.310Z,15.97
2019-04-29T09:55:05.635Z,14.03
2019-04-29T09:57:35.871Z,12.70
2019-04-29T10:00:12.030Z,17.37
2019-04-29T10:02:49.027Z,15.63
2019-04-29T10:05:47.301Z,15.03
2019-04-29T10:08:16.635Z,16.67
2019-04-29T10:10:45.882Z,15.20
2019-04-29T10:13:15.163Z,17.80
2019-04-29T10:16:02.168Z,15.83
2019-04-29T10:18:35.887Z,13.33
2019-04-29T10:21:08.216Z,13.97
2019-04-29T10:23:37.398Z,15.50
2019-04-29T10:26:07.632Z,11.90
2019-04-29T10:28:41.526Z,14.87
2019-04-29T10:31:11.206Z,14.57
2019-04-29T10:33:40.393Z,13.40
2019-04-29T10:36:09.741Z,15.63
2019-04-29T10:38:40.416Z,18.20
2019-04-29T10:41:18.425Z,15.40
2019-04-29T10:44:09.679Z,16.53
2019-04-29T10:46:55.827Z,16.43
2019-04-29T10:49:34.774Z,17.60
2019-04-29T10:52:04.568Z,17.00
2019-04-29T10:54:34.267Z,15.10
2019-04-29T10:57:04.026Z,16.07
2019-04-29T10:59:36.308Z,13.10
2019-04-29T11:02:35.370Z,16.53
2019-04-29T11:05:29.524Z,22.23
2019-04-29T11:08:05.596Z,22.73
2019-04-29T11:10:34.744Z,19.33
2019-04-29T11:13:04.041Z,16.57
2019-04-29T11:15:36.935Z,18.10
2019-04-29T11:18:07.876Z,13.97
2019-04-29T11:20:37.230Z,16.20
2019-04-29T11:23:17.854Z,16.27
2019-04-29T11:26:09.543Z,15.80
2019-04-29T11:28:39.605Z,18.20
2019-04-29T11:31:09.852Z,13.37
2019-04-29T11:33:47.356Z,13.83
2019-04-29T11:36:17.376Z,14.80
2019-04-29T11:38:46.602Z,14.00
2019-04-29T11:41:19.753Z,18.47
2019-04-29T11:43:50.882Z,14.43
2019-04-29T11:46:20.948Z,14.87
2019-04-29T11:48:50.713Z,14.27
2019-04-29T11:51:34.100Z,19.67
2019-04-29T11:54:02.441Z,19.77
2019-04-29T11:56:31.702Z,12.93
2019-04-29T11:59:10.233Z,14.77
2019-04-29T12:01:53.442Z,15.03
2019-04-29T12:04:42.238Z,14.03
2019-04-29T12:07:11.832Z,17.03
2019-04-29T12:09:40.976Z,13.40
2019-04-29T12:12:13.179Z,13.47
2019-04-29T12:14:49.202Z,14.90
2019-04-29T12:17:21.221Z,19.23
2019-04-29T12:19:52.630Z,17.73
2019-04-29T12:22:30.070Z,20.23
2019-04-29T12:24:53.013Z,21.17
2019-04-29T12:27:22.300Z,16.77
2019-04-29T12:29:54.466Z,15.00
2019-04-29T12:32:43.407Z,17.33
2019-04-29T12:35:34.059Z,13.17
2019-04-29T12:38:39.412Z,17.07
2019-04-29T12:41:21.096Z,19.33
2019-04-29T12:43:59.226Z,17.50
2019-04-29T12:46:29.906Z,20.73
2019-04-29T12:48:59.129Z,16.20
2019-04-29T12:51:28.380Z,15.63
2019-04-29T12:53:57.639Z,14.87
2019-04-29T12:56:32.627Z,13.90
2019-04-29T12:59:02.079Z,12.90
2019-04-29T13:02:00.375Z,14.97
2019-04-29T13:04:52.585Z,14.67
2019-04-29T13:07:56.449Z,17.00
2019-04-29T13:10:42.376Z,21.93
2019-04-29T13:13:15.539Z,18.73
2019-04-29T13:16:00.203Z,20.80
2019-04-29T13:18:37.815Z,15.87
2019-04-29T13:21:10.592Z,17.83
2019-04-29T13:23:55.088Z,17.57
2019-04-29T13:26:11.272Z,14.03
2019-04-29T13:28:58.884Z,17.33
2019-04-29T13:31:20.171Z,14.03
2019-04-29T13:33:52.927Z,12.57
2019-04-29T13:36:25.881Z,15.90
2019-04-29T13:38:53.204Z,16.10
2019-04-29T13:41:24.198Z,12.80
2019-04-29T13:44:04.395Z,15.83
2019-04-29T13:46:46.223Z,17.23
2019-04-29T13:49:39.537Z,16.53
2019-04-29T13:52:09.021Z,11.60
2019-04-29T13:54:42.238Z,11.67
2019-04-29T13:57:15.576Z,12.73
2019-04-29T13:59:50.360Z,10.60
2019-04-29T14:02:31.143Z,13.47
2019-04-29T14:05:00.653Z,10.93
2019-04-29T14:07:31.858Z,13.20
2019-04-29T14:10:01.184Z,13.63
2019-04-29T14:15:01.736Z,18.53
2019-04-29T14:17:35.618Z,12.10
2019-04-29T14:20:05.211Z,10.80
2019-04-29T14:22:34.437Z,13.53
2019-04-29T14:25:03.671Z,13.70
2019-04-29T14:27:33.935Z,13.30
2019-04-29T14:30:07.229Z,16.70
2019-04-29T14:32:38.017Z,13.90
2019-04-29T14:35:13.877Z,13.33
2019-04-29T14:37:54.348Z,13.80
2019-04-29T14:40:14.167Z,15.43
2019-04-29T14:43:02.873Z,13.70
2019-04-29T14:46:01.805Z,16.07
2019-04-29T14:48:42.888Z,15.17
2019-04-29T14:51:15.352Z,13.53
2019-04-29T14:53:56.271Z,16.60
2019-04-29T14:56:16.075Z,9.47
2019-04-29T14:58:45.424Z,12.90
2019-04-29T15:01:23.761Z,9.97
2019-04-29T15:04:00.194Z,14.80
2019-04-29T15:06:29.581Z,12.03
2019-04-29T15:08:59.221Z,9.77
2019-04-29T15:11:34.703Z,11.93
2019-04-29T15:14:23.954Z,11.00
2019-04-29T15:16:59.201Z,10.63
2019-04-29T15:19:49.308Z,11.63
2019-04-29T15:22:18.150Z,10.20
2019-04-29T15:24:47.430Z,11.67
2019-04-29T15:27:16.817Z,10.07
2019-04-29T15:29:46.024Z,8.77
2019-04-29T15:32:17.796Z,9.17
2019-04-29T15:34:48.180Z,6.60
2019-04-29T15:37:18.789Z,10.17
2019-04-29T15:39:47.956Z,6.53
2019-04-29T15:42:17.353Z,7.80
2019-04-29T15:44:46.522Z,8.07
2019-04-29T15:47:19.088Z,11.17
2019-04-29T15:49:48.265Z,10.63
2019-04-29T15:52:25.880Z,8.17
2019-04-29T15:54:57.378Z,11.83
2019-04-29T15:57:26.820Z,13.30
2019-04-29T15:59:59.937Z,10.47
2019-04-29T16:02:27.025Z,10.10
2019-04-29T16:05:04.743Z,8.83
2019-04-29T16:07:51.491Z,7.80
2019-04-29T16:10:36.453Z,8.43
2019-04-29T16:13:14.545Z,6.53
2019-04-29T16:15:46.306Z,9.93
2019-04-29T16:18:15.643Z,13.87
2019-04-29T16:20:44.891Z,8.90
2019-04-29T16:23:15.096Z,10.57
2019-04-29T16:25:46.329Z,7.13
2019-04-29T16:28:15.364Z,9.60
2019-04-29T16:30:44.510Z,10.67
2019-04-29T16:33:15.575Z,10.53
2019-04-29T16:35:49.310Z,7.60
2019-04-29T16:38:18.814Z,10.17
2019-04-29T16:40:57.270Z,8.73
2019-04-29T16:43:31.963Z,7.17
2019-04-29T16:46:08.973Z,10.30
2019-04-29T16:48:38.136Z,9.53
2019-04-29T16:51:13.951Z,6.67
2019-04-29T16:53:38.391Z,5.27
2019-04-29T16:56:07.719Z,6.43
2019-04-29T16:58:39.049Z,7.40
2019-04-29T17:01:08.367Z,8.17
2019-04-29T17:03:37.788Z,7.97
2019-04-29T17:06:07.103Z,7.37
2019-04-29T17:08:50.599Z,9.30
2019-04-29T17:11:31.190Z,7.00
2019-04-29T17:14:03.369Z,7.93
2019-04-29T17:16:34.577Z,5.23
2019-04-29T17:19:03.967Z,8.03
2019-04-29T17:21:33.231Z,10.50
2019-04-29T17:24:03.423Z,5.80
2019-04-29T17:26:52.518Z,9.53
2019-04-29T17:29:49.537Z,7.43
2019-04-29T17:32:42.961Z,7.43
2019-04-29T17:35:06.088Z,6.30
2019-04-29T17:37:35.547Z,6.40
2019-04-29T17:40:05.291Z,8.37
2019-04-29T17:42:35.590Z,4.77
2019-04-29T17:45:10.561Z,10.03
2019-04-29T17:47:55.548Z,8.90
2019-04-29T17:50:46.179Z,6.03
2019-04-29T17:53:19.759Z,11.23
2019-04-29T17:56:02.917Z,7.50
2019-04-29T17:58:40.131Z,5.47
2019-04-29T18:01:36.816Z,13.13
2019-04-29T18:04:16.825Z,6.33
2019-04-29T18:07:10.538Z,5.13
2019-04-29T18:09:48.527Z,10.10
2019-04-29T18:12:24.944Z,7.07
2019-04-29T18:14:55.351Z,9.43
2019-04-29T18:17:31.147Z,4.10
2019-04-29T18:20:36.353Z,4.77
2019-04-29T18:23:27.767Z,7.90
2019-04-29T18:26:04.880Z,4.27
2019-04-29T18:28:37.159Z,4.50
2019-04-29T18:31:07.182Z,5.03
2019-04-29T18:33:36.409Z,3.47
2019-04-29T18:36:07.076Z,5.67
2019-04-29T18:38:36.482Z,5.50
2019-04-29T18:41:07.897Z,7.83
2019-04-29T18:43:37.193Z,5.47
2019-04-29T18:46:12.491Z,8.83
2019-04-29T18:48:37.459Z,8.07
2019-04-29T18:51:06.645Z,6.30
2019-04-29T18:53:35.736Z,4.37
2019-04-29T18:56:05.325Z,8.67
2019-04-29T18:58:35.722Z,4.83
2019-04-29T19:01:05.403Z,4.83
2019-04-29T19:03:59.794Z,3.77
2019-04-29T19:06:32.879Z,6.77
2019-04-29T19:09:02.857Z,4.10
2019-04-29T19:11:35.213Z,9.40
2019-04-29T19:14:05.175Z,5.67
2019-04-29T19:16:35.951Z,6.37
2019-04-29T19:19:05.838Z,6.13
2019-04-29T19:21:35.037Z,9.00
2019-04-29T19:24:04.898Z,5.43
2019-04-29T19:26:35.016Z,5.90
2019-04-29T19:29:09.419Z,10.50
2019-04-29T19:31:46.642Z,7.43
2019-04-29T19:34:14.803Z,21.07
2019-04-29T19:36:41.067Z,36.03
2019-04-29T19:39:10.332Z,17.43
2019-04-29T19:41:40.654Z,25.73
2019-04-29T19:44:09.812Z,20.60
2019-04-29T19:46:41.232Z,11.77
2019-04-29T19:49:10.204Z,10.10
2019-04-29T19:51:43.611Z,6.63
2019-04-29T19:54:10.505Z,6.93
2019-04-29T19:56:39.879Z,13.53
2019-04-29T19:59:13.433Z,10.33
2019-04-29T20:01:40.492Z,9.53
2019-04-29T20:04:22.497Z,11.50
2019-04-29T20:06:55.830Z,10.40
2019-04-29T20:09:24.268Z,9.17
2019-04-29T20:11:55.859Z,11.93
2019-04-29T20:14:29.303Z,8.10
2019-04-29T20:17:17.334Z,9.27
2019-04-29T20:19:56.677Z,9.87
2019-04-29T20:22:25.738Z,7.70
2019-04-29T20:24:55.814Z,7.30
2019-04-29T20:27:26.115Z,10.57
2019-04-29T20:29:56.134Z,7.00
2019-04-29T20:32:27.864Z,4.53
2019-04-29T20:34:59.019Z,7.43
2019-04-29T20:37:27.225Z,8.30
2019-04-29T20:40:00.479Z,6.70
2019-04-29T20:42:27.423Z,8.87
2019-04-29T20:44:56.834Z,7.90
2019-04-29T20:47:37.434Z,4.60
2019-04-29T20:49:56.956Z,9.70
2019-04-29T20:52:36.748Z,7.87
2019-04-29T20:55:09.135Z,5.73
2019-04-29T20:57:37.802Z,7.83
2019-04-29T21:00:08.000Z,6.63
2019-04-29T21:02:38.483Z,8.40
2019-04-29T21:05:09.766Z,7.93
2019-04-29T21:07:38.797Z,7.57
2019-04-29T21:10:08.611Z,8.47
2019-04-29T21:12:55.765Z,8.07
2019-04-29T21:15:33.275Z,7.53
2019-04-29T21:18:02.423Z,5.67
2019-04-29T21:20:31.540Z,9.00
2019-04-29T21:23:01.102Z,6.27
2019-04-29T21:25:30.725Z,6.00
2019-04-29T21:28:02.326Z,8.10
2019-04-29T21:30:35.657Z,7.60
2019-04-29T21:33:02.600Z,6.27
2019-04-29T21:35:39.432Z,7.03
2019-04-29T21:38:28.357Z,13.13
2019-04-29T21:41:05.412Z,8.07
2019-04-29T21:43:36.107Z,7.93
2019-04-29T21:46:05.729Z,5.83
2019-04-29T21:48:37.227Z,6.33
2019-04-29T21:51:06.876Z,6.03
2019-04-29T21:53:40.260Z,7.83
2019-04-29T21:56:09.422Z,8.90
2019-04-29T21:58:38.994Z,9.20
2019-04-29T22:01:08.505Z,7.53
2019-04-29T22:03:37.987Z,8.20
2019-04-29T22:06:07.246Z,5.70
2019-04-29T22:08:36.334Z,7.63
2019-04-29T22:11:07.040Z,7.63
2019-04-29T22:13:39.079Z,8.83
2019-04-29T22:16:11.325Z,5.77
2019-04-29T22:18:38.432Z,6.60
2019-04-29T22:21:10.014Z,7.70
2019-04-29T22:23:38.448Z,6.77
2019-04-29T22:26:07.588Z,7.30
2019-04-29T22:28:36.719Z,6.20
2019-04-29T22:31:07.758Z,8.47
2019-04-29T22:33:38.585Z,5.73
2019-04-29T22:36:10.084Z,9.60
2019-04-29T22:38:38.824Z,8.23
2019-04-29T22:41:11.946Z,7.77
2019-04-29T22:43:47.065Z,6.83
2019-04-29T22:46:17.497Z,7.33
2019-04-29T22:48:48.715Z,7.43
2019-04-29T22:51:18.925Z,6.60
2019-04-29T22:53:48.449Z,6.63
2019-04-29T22:56:17.546Z,5.20
2019-04-29T22:58:47.423Z,5.47
2019-04-29T23:01:17.846Z,6.80
2019-04-29T23:03:47.459Z,7.70
2019-04-29T23:06:16.683Z,6.07
2019-04-29T23:08:45.801Z,7.77
2019-04-29T23:11:14.923Z,6.73
2019-04-29T23:13:45.880Z,6.77
2019-04-29T23:16:15.225Z,7.73
2019-04-29T23:18:45.830Z,8.87
2019-04-29T23:21:37.341Z,9.30
2019-04-29T23:24:26.117Z,6.90
2019-04-29T23:26:57.141Z,7.20
2019-04-29T23:29:26.336Z,6.23
2019-04-29T23:31:59.610Z,7.07
2019-04-29T23:34:29.218Z,8.63
2019-04-29T23:36:57.409Z,7.03
2019-04-29T23:39:26.617Z,6.67
2019-04-29T23:41:55.986Z,6.57
2019-04-29T23:44:25.187Z,3.70
2019-04-29T23:46:54.551Z,8.53
2019-04-29T23:49:28.822Z,6.97
2019-04-29T23:51:57.988Z,6.60
2019-04-29T23:54:29.156Z,5.93
2019-04-29T23:57:23.790Z,5.57
